Main page
METAR-TAF:

METAR-TAF

Airports :

Jinnah International Airport

Karachi, Pakistan

latitude: 24-54N, longitude: 067-08E, elevation: 21 m

Current weather observation

The report was made 33 minutes ago, at 22:55 UTC
Calm wind
Temperature 14°C
Humidity 88%
Pressure 1013 hPa
Visibility: 2500 m
mist

METAR: OPKC 212255Z 00000KT 2500 BR NSC 14/12 Q1013 NOSIG

Time: 04:28 (23:28 UTC)

Forecast

The report was made 7 hours and 58 minutes ago, at 15:30 UTC
Forecast valid from 21 at 18 UTC to 22 at 03 UTC
Wind 7 kt from the North/Northeast
Visibility: 4000 m
Few clouds at a height of 10000 ft
smoke
Temporary
from 22 at 00 UTC to 22 at 03 UTC
Wind 5 kt from the North/Northeast
Visibility: 2000 m
smoke

TAF: OPKC 211530Z 2118/2203 03007KT 4000 FU FEW100 TEMPO 2200/2203 03005KT 2000 FU NSC

Weather observations and forecasts of more than 4000 airports (METAR and TAF reports).

The available stations are represented by yellow and red dots on the map.

Hover mouse over dot to see the name of the station.

Then click to see weather observations and forecasts.

To change the map : click on the green buttons with a black cross to zoom in, on the green button with a dash to zoom out, or on the green arrows for adjacent maps.


METAR-TAF: